EWR weather

Newark Liberty International Airport
Newark, New Jersey, United States

Public forecast

Using degrees Fahrenheit for public forecast. Weather courtesy of forecast.io.

METAR (pilot weather report)

Retrieved 2018/06/18 13:51 UTC (1 hour ago):

KEWR 181351Z 22010KT 10SM BKN250 29/19 A3000 RMK AO2 SLP157 T02890194

TAF (pilot weather forecast)

Retrieved 2018/06/18 12:46 UTC (2 hours ago):

TAF KEWR 181144Z 1812/1918 23010KT P6SM BKN250 FM181500 23012G19KT P6SM FEW050 BKN250 FM182200 23014G22KT P6SM VCTS SCT050CB SCT120 BKN250 FM190100 24012KT P6SM SCT045 BKN100 FM190500 24009KT P6SM VCTS SCT050CB BKN120 FM190800 25007KT P6SM BKN050 FM191100 31010KT P6SM SCT035 BKN050 FM191400 33014KT P6SM BKN150